Time,TemperatureF,DewpointF,PressureIn,WindDirection,WindDirectionDegrees,WindSpeedMPH,WindSpeedGustMPH,Humidity,HourlyPrecipIn,Conditions,Clouds,dailyrainin,SoftwareType,DateUTC
2016-02-11 00:01:00,56.0,37.0,-100.00,ESE,105,10.0,16.0,49,-99.99,,,-99.99,,2016-02-11 08:01:00,
2016-02-11 00:23:00,56.0,37.0,-100.00,ESE,105,10.0,16.0,49,-99.99,,,-99.99,,2016-02-11 08:23:00,
2016-02-11 00:54:00,56.0,37.0,-100.00,ESE,105,10.0,16.0,49,-99.99,,,-99.99,,2016-02-11 08:54:00,
2016-02-11 01:01:00,54.0,38.0,-100.00,East,99,13.0,20.0,55,-99.99,,,-99.99,,2016-02-11 09:01:00,
2016-02-11 01:23:00,54.0,38.0,-100.00,East,99,13.0,20.0,55,-99.99,,,-99.99,,2016-02-11 09:23:00,
2016-02-11 01:34:00,54.0,38.0,-100.00,East,99,13.0,20.0,55,-99.99,,,-99.99,,2016-02-11 09:34:00,
2016-02-11 01:47:00,54.0,38.0,-100.00,East,99,13.0,20.0,55,-99.99,,,-99.99,,2016-02-11 09:47:00,
2016-02-11 01:54:00,54.0,38.0,-100.00,East,99,13.0,20.0,55,-99.99,,,-99.99,,2016-02-11 09:54:00,
2016-02-11 02:01:00,54.0,37.0,-100.00,ESE,104,11.0,14.0,52,-99.99,,,-99.99,,2016-02-11 10:01:00,
2016-02-11 02:24:00,54.0,37.0,-100.00,ESE,104,11.0,14.0,52,-99.99,,,-99.99,,2016-02-11 10:24:00,
2016-02-11 02:34:00,54.0,37.0,-100.00,ESE,104,11.0,14.0,52,-99.99,,,-99.99,,2016-02-11 10:34:00,
2016-02-11 02:44:00,54.0,37.0,-100.00,ESE,104,11.0,14.0,52,-99.99,,,-99.99,,2016-02-11 10:44:00,
2016-02-11 03:01:00,54.0,36.0,-100.00,East,80,8.0,14.0,51,-99.99,,,-99.99,,2016-02-11 11:01:00,
2016-02-11 03:24:00,54.0,36.0,-100.00,East,80,8.0,14.0,51,-99.99,,,-99.99,,2016-02-11 11:24:00,
2016-02-11 03:34:00,54.0,36.0,-100.00,East,80,8.0,14.0,51,-99.99,,,-99.99,,2016-02-11 11:34:00,
2016-02-11 03:44:00,54.0,36.0,-100.00,East,80,8.0,14.0,51,-99.99,,,-99.99,,2016-02-11 11:44:00,
2016-02-11 03:54:00,54.0,36.0,-100.00,East,80,8.0,14.0,51,-99.99,,,-99.99,,2016-02-11 11:54:00,
2016-02-11 04:01:00,55.0,37.0,-100.00,East,94,10.0,11.0,50,-99.99,,,-99.99,,2016-02-11 12:01:00,
2016-02-11 04:34:00,55.0,37.0,-100.00,East,94,10.0,11.0,50,-99.99,,,-99.99,,2016-02-11 12:34:00,
2016-02-11 04:44:00,55.0,37.0,-100.00,East,94,10.0,11.0,50,-99.99,,,-99.99,,2016-02-11 12:44:00,
2016-02-11 04:54:00,55.0,37.0,-100.00,East,94,10.0,11.0,50,-99.99,,,-99.99,,2016-02-11 12:54:00,
2016-02-11 05:01:00,54.0,37.0,-100.00,East,88,8.0,11.0,52,-99.99,,,-99.99,,2016-02-11 13:01:00,
2016-02-11 05:24:00,54.0,37.0,-100.00,East,88,8.0,11.0,52,-99.99,,,-99.99,,2016-02-11 13:24:00,
2016-02-11 05:34:00,54.0,37.0,-100.00,East,88,8.0,11.0,52,-99.99,,,-99.99,,2016-02-11 13:34:00,
2016-02-11 05:44:00,54.0,37.0,-100.00,East,88,8.0,11.0,52,-99.99,,,-99.99,,2016-02-11 13:44:00,
2016-02-11 06:01:00,53.0,37.0,-100.00,East,84,9.0,12.0,55,-99.99,,,-99.99,,2016-02-11 14:01:00,
2016-02-11 06:24:00,53.0,37.0,-100.00,East,84,9.0,12.0,55,-99.99,,,-99.99,,2016-02-11 14:24:00,
2016-02-11 06:34:00,53.0,37.0,-100.00,East,84,9.0,12.0,55,-99.99,,,-99.99,,2016-02-11 14:34:00,
2016-02-11 06:44:00,53.0,37.0,-100.00,East,84,9.0,12.0,55,-99.99,,,-99.99,,2016-02-11 14:44:00,
2016-02-11 06:54:00,53.0,37.0,-100.00,East,84,9.0,12.0,55,-99.99,,,-99.99,,2016-02-11 14:54:00,
2016-02-11 11:01:00,61.0,42.0,-100.00,SE,132,9.0,12.0,50,-99.99,,,-99.99,,2016-02-11 19:01:00,
2016-02-11 11:44:00,61.0,42.0,-100.00,SE,132,9.0,12.0,50,-99.99,,,-99.99,,2016-02-11 19:44:00,
2016-02-11 11:54:00,61.0,42.0,-100.00,SE,132,9.0,12.0,50,-99.99,,,-99.99,,2016-02-11 19:54:00,
2016-02-11 12:01:00,63.0,40.0,-100.00,SSE,160,8.0,14.0,43,-99.99,,,-99.99,,2016-02-11 20:01:00,
2016-02-11 12:24:00,63.0,40.0,-100.00,SSE,160,8.0,14.0,43,-99.99,,,-99.99,,2016-02-11 20:24:00,
2016-02-11 12:34:00,63.0,40.0,-100.00,SSE,160,8.0,14.0,43,-99.99,,,-99.99,,2016-02-11 20:34:00,
2016-02-11 12:44:00,63.0,40.0,-100.00,SSE,160,8.0,14.0,43,-99.99,,,-99.99,,2016-02-11 20:44:00,
2016-02-11 12:54:00,63.0,40.0,-100.00,SSE,160,8.0,14.0,43,-99.99,,,-99.99,,2016-02-11 20:54:00,
2016-02-11 13:23:00,65.0,41.0,-100.00,South,187,9.0,15.0,42,-99.99,,,-99.99,,2016-02-11 21:23:00,
2016-02-11 13:34:00,65.0,41.0,-100.00,South,187,9.0,15.0,42,-99.99,,,-99.99,,2016-02-11 21:34:00,
2016-02-11 13:44:00,65.0,41.0,-100.00,South,187,9.0,15.0,42,-99.99,,,-99.99,,2016-02-11 21:44:00,